KTIX/TIX METAR and TAF weather

Enter ICAO airport designator
Station Type Date Time Source
KTIX METAR 2021/07/26 15:47 UTC NOAA

KTIX 261547Z 21007KT 7SM BKN026 33/24 A2998


Station Type Date Time Source
KTIX Decoded METAR 2021/07/26 15:47 UTC NOAA

Titusville, FL, United States (KTIX) 28-31N 080-48W
Jul 26, 2021 - 11:47 AM EDT / 2021.07.26 1547 UTC
Wind: from the SSW (210 degrees) at 8 MPH (7 KT):0
Visibility: 7 mile(s):0
Sky conditions: mostly cloudy
Temperature: 91 F (33 C)
Heat index: 101.5 F (38.6 C):1
Dew Point: 75 F (24 C)
Relative Humidity: 59%
Pressure (altimeter): 29.98 in. Hg (1015 hPa)
ob: KTIX 261547Z 21007KT 7SM BKN026 33/24 A2998
cycle: 16

Station Type Date Time Source
KTIX TAF 2021/07/26 16:03 UTC NOAA

TAF
AMD KTIX 261600Z 2616/2712 21006KT P6SM VCTS SCT025CB SCT040 SCT250
TEMPO 2616/2619 3SM TSRA BKN025CB
FM261900 11009KT P6SM VCTS SCT035CB BKN060 BKN200
FM262100 14010KT P6SM FEW030 SCT050 BKN250
FM270000 19005KT P6SM FEW025 SCT250

Example: see airport list